Weatherford, Texas
Current Conditions -  °F | °C
As of 10:53 PM on Wednesday 22 Oct 2014 (Local Time) from KMWL Reporting Station
Broken Clouds Broken Clouds  
Wind Chill: 68°   Ceiling: 12000
Heat Index: 68°   Visibility: 8mi
Dew Point: 60°   Wind: 5mph
Humidity: 76%   Direction: 150°SSE
Pressure: 30.1"   Gusts: NA
Location:  32.76°N, 97.8°W
Report Text: KMWL 230353Z AUTO 15004KT 8SM BKN120 20/16 A3010 RMK AO2 RAB03E21 SLP183 P0000 T02000156
Loading
Personal Weather Stations






























Interactive Weather Map
Tropical Storm Tracking
New forecast layout! Learn more

10-Day Weather Forecast

Advertisements
Track Severe Weather on mobile